Time;durP1;ratioP1;P1;durP2;ratioP2;P2;SDS_P1;SDS_P2;PMS_P1;PMS_P2;Temp;Humidity;BMP_temperature;BMP_pressure;BME280_temperature;BME280_humidity;BME280_pressure;Samples;Min_cycle;Max_cycle;Signal;HPM_P1;HPM_P2
2022/06/30 00:00:04;;;;;;;0.00;0.00;;;;;;;17.88;76.78;100199.53;5043107;28;20229;-72
2022/06/30 00:02:29;;;;;;;0.00;0.00;;;;;;;17.88;76.98;100199.53;5032658;28;20218;-72
2022/06/30 00:04:55;;;;;;;0.00;0.00;;;;;;;17.87;76.70;100197.16;5032986;28;20208;-73
2022/06/30 00:07:20;;;;;;;0.00;0.00;;;;;;;17.79;77.31;100202.56;5032976;28;20263;-72
2022/06/30 00:09:46;;;;;;;0.00;0.00;;;;;;;17.66;77.51;100206.59;5032906;28;20265;-72
2022/06/30 00:12:11;;;;;;;0.00;0.00;;;;;;;17.65;77.35;100190.38;5033244;28;20171;-72
2022/06/30 00:14:37;;;;;;;0.00;0.00;;;;;;;17.70;77.11;100192.88;5032835;28;20176;-72
2022/06/30 00:17:03;;;;;;;0.00;0.00;;;;;;;17.40;77.27;100195.41;5032679;28;20446;-72
2022/06/30 00:19:28;;;;;;;0.00;0.00;;;;;;;17.16;78.23;100186.25;5032335;28;20582;-72
2022/06/30 00:21:54;;;;;;;0.00;0.00;;;;;;;17.37;78.29;100190.63;5031167;28;20198;-72
2022/06/30 00:24:19;;;;;;;0.00;0.00;;;;;;;17.47;78.22;100184.50;5032176;28;20648;-72
2022/06/30 00:26:44;;;;;;;0.00;0.00;;;;;;;17.49;78.27;100176.66;5032318;28;20191;-72
2022/06/30 00:29:11;;;;;;;0.00;0.00;;;;;;;17.54;78.23;100179.13;5031774;28;20176;-72
2022/06/30 00:31:37;;;;;;;0.00;0.00;;;;;;;17.59;77.84;100167.78;5032438;28;20387;-73
2022/06/30 00:34:02;;;;;;;0.00;0.00;;;;;;;17.65;77.45;100174.63;5032415;28;20176;-73
2022/06/30 00:36:28;;;;;;;0.00;0.00;;;;;;;17.64;77.57;100177.72;5032529;28;20188;-72
2022/06/30 00:38:53;;;;;;;0.00;0.00;;;;;;;17.55;77.41;100164.16;5031717;28;20184;-72
2022/06/30 00:41:18;;;;;;;0.00;0.00;;;;;;;17.52;77.89;100168.44;5032111;28;20188;-72
2022/06/30 00:43:45;;;;;;;0.50;0.50;;;;;;;17.48;78.04;100164.00;5030648;28;20275;-73
2022/06/30 00:46:11;;;;;;;0.00;0.00;;;;;;;17.31;78.23;100165.25;5032112;28;20183;-72
2022/06/30 00:48:37;;;;;;;0.00;0.00;;;;;;;17.24;78.74;100162.34;5031332;28;20180;-72
2022/06/30 00:51:05;;;;;;;0.00;0.00;;;;;;;17.24;79.31;100154.06;5031915;28;20208;-72
2022/06/30 00:53:36;;;;;;;0.00;0.00;;;;;;;17.22;79.55;100148.13;5031464;28;20176;-73
2022/06/30 00:56:03;;;;;;;0.00;0.00;;;;;;;17.19;79.82;100143.28;5031362;28;20179;-72
2022/06/30 00:58:31;;;;;;;0.00;0.00;;;;;;;17.24;79.43;100149.34;5031210;28;20184;-72
2022/06/30 01:00:58;;;;;;;0.00;0.00;;;;;;;17.29;79.16;100144.69;5031685;28;20187;-72
2022/06/30 01:03:24;;;;;;;0.00;0.00;;;;;;;17.27;78.66;100139.53;5031866;28;20176;-73
2022/06/30 01:05:51;;;;;;;0.00;0.00;;;;;;;17.22;78.87;100137.88;5028539;28;20601;-72
2022/06/30 01:08:17;;;;;;;0.00;0.00;;;;;;;17.12;78.84;100135.69;5031097;28;20180;-72
2022/06/30 01:13:28;;;;;;;0.00;0.00;;;;;;;16.99;79.19;100138.94;5014573;28;20239;-72
2022/06/30 01:15:53;;;;;;;0.00;0.00;;;;;;;16.88;79.83;100136.75;5031717;28;20180;-72
2022/06/30 01:18:19;;;;;;;0.00;0.00;;;;;;;16.77;80.34;100140.41;5031370;28;20183;-72
2022/06/30 01:20:44;;;;;;;0.00;0.00;;;;;;;16.75;81.13;100137.22;5030609;28;20188;-72
2022/06/30 01:23:09;;;;;;;0.00;0.00;;;;;;;16.84;80.75;100146.09;5034379;28;20171;-72
2022/06/30 01:25:35;;;;;;;0.00;0.00;;;;;;;16.79;80.76;100149.97;5037031;28;20536;-72
2022/06/30 01:28:01;;;;;;;0.00;0.00;;;;;;;16.80;80.87;100148.00;5035267;28;20175;-72
2022/06/30 01:30:27;;;;;;;0.00;0.00;;;;;;;16.80;81.14;100148.81;5039210;28;20200;-72
2022/06/30 01:32:52;;;;;;;0.00;0.00;;;;;;;16.71;81.42;100150.94;5035234;28;20195;-72
2022/06/30 01:35:18;;;;;;;0.00;0.00;;;;;;;16.57;81.18;100150.59;5032366;28;20199;-72
2022/06/30 01:37:52;;;;;;;0.00;0.00;;;;;;;16.66;81.39;100145.69;5034821;28;20674;-72
2022/06/30 01:40:19;;;;;;;0.00;0.00;;;;;;;16.62;80.65;100144.78;5033693;28;20167;-72
2022/06/30 01:42:44;;;;;;;0.00;0.00;;;;;;;16.73;80.43;100145.88;5035690;28;20164;-72
2022/06/30 01:45:10;;;;;;;0.00;0.00;;;;;;;16.59;80.50;100148.28;5031789;28;20176;-72
2022/06/30 01:47:35;;;;;;;0.00;0.00;;;;;;;16.52;81.62;100146.16;5030766;28;20259;-72
2022/06/30 01:50:04;;;;;;;0.00;0.00;;;;;;;16.53;81.83;100147.75;5030576;28;20213;-72
2022/06/30 01:52:29;;;;;;;0.00;0.00;;;;;;;16.59;81.76;100145.50;5030781;28;20192;-72
2022/06/30 01:54:54;;;;;;;0.00;0.00;;;;;;;16.50;81.81;100142.16;5029589;28;20182;-72
2022/06/30 01:57:20;;;;;;;0.00;0.00;;;;;;;16.32;82.08;100142.53;5030678;28;20553;-72
2022/06/30 01:59:45;;;;;;;0.00;0.00;;;;;;;16.35;82.49;100141.03;5030413;28;20262;-72
2022/06/30 02:02:10;;;;;;;0.00;0.00;;;;;;;16.23;83.02;100136.41;5030741;28;20269;-72
2022/06/30 02:04:47;;;;;;;0.00;0.00;;;;;;;15.99;83.82;100128.31;5030707;28;20179;-72
2022/06/30 02:07:17;;;;;;;0.00;0.00;;;;;;;16.04;84.52;100128.03;5034387;28;20164;-72
2022/06/30 02:09:43;;;;;;;0.00;0.00;;;;;;;15.80;85.45;100129.03;5034578;28;20429;-72
2022/06/30 02:14:52;;;;;;;0.00;0.00;;;;;;;15.56;87.79;100123.63;5034696;28;20542;-72
2022/06/30 02:17:18;;;;;;;0.00;0.00;;;;;;;15.86;87.57;100124.84;5034511;28;20171;-72
2022/06/30 02:19:43;;;;;;;0.00;0.00;;;;;;;15.95;86.68;100122.72;5033157;28;20184;-72
2022/06/30 02:22:08;;;;;;;0.00;0.00;;;;;;;15.76;86.49;100119.84;5034588;28;20183;-72
2022/06/30 02:24:34;;;;;;;0.00;0.00;;;;;;;15.77;86.76;100116.78;5034705;28;20179;-72
2022/06/30 02:26:59;;;;;;;0.00;0.00;;;;;;;15.71;87.92;100125.63;5034365;28;20171;-72
2022/06/30 02:29:25;;;;;;;0.00;0.00;;;;;;;15.99;87.28;100120.84;5034164;28;20214;-73
2022/06/30 02:31:50;;;;;;;0.00;0.00;;;;;;;16.12;86.51;100124.31;5034310;28;20179;-73
2022/06/30 02:34:16;;;;;;;0.40;0.40;;;;;;;16.28;85.80;100127.06;5034396;28;20168;-72
2022/06/30 02:36:41;;;;;;;0.00;0.00;;;;;;;16.38;84.80;100129.28;5033954;28;20183;-73
2022/06/30 02:39:06;;;;;;;0.00;0.00;;;;;;;16.44;84.03;100135.31;5034187;28;20251;-72
2022/06/30 02:41:31;;;;;;;0.00;0.00;;;;;;;16.42;83.81;100129.34;5034564;28;20238;-72
2022/06/30 02:43:58;;;;;;;0.00;0.00;;;;;;;16.37;83.63;100127.69;5035008;28;20226;-72
2022/06/30 02:46:24;;;;;;;0.00;0.00;;;;;;;16.37;84.10;100122.16;5032916;28;20190;-72
2022/06/30 02:48:49;;;;;;;0.00;0.00;;;;;;;16.30;84.05;100122.78;5033678;28;20250;-72
2022/06/30 02:51:14;;;;;;;0.00;0.00;;;;;;;16.26;84.76;100129.38;5033885;28;20200;-72
2022/06/30 02:53:40;;;;;;;0.00;0.00;;;;;;;16.12;85.02;100123.53;5033879;28;20233;-72
2022/06/30 02:56:05;;;;;;;0.00;0.00;;;;;;;16.10;85.78;100131.34;5033789;28;20664;-72
2022/06/30 02:58:30;;;;;;;0.00;0.00;;;;;;;15.73;87.09;100126.06;5033431;28;20215;-73
2022/06/30 03:00:56;;;;;;;0.00;0.00;;;;;;;15.47;89.25;100126.53;5033745;28;20179;-72
2022/06/30 03:03:21;;;;;;;0.00;0.00;;;;;;;15.71;89.60;100123.69;5033749;28;20183;-72
2022/06/30 03:05:46;;;;;;;0.00;0.00;;;;;;;15.75;88.87;100134.78;5033160;28;20675;-73
2022/06/30 03:08:12;;;;;;;0.00;0.00;;;;;;;15.69;88.29;100126.00;5033263;28;20625;-72
2022/06/30 03:10:37;;;;;;;0.00;0.00;;;;;;;15.62;88.60;100122.22;5033548;28;20227;-72
2022/06/30 03:13:02;;;;;;;0.00;0.00;;;;;;;15.56;88.95;100120.88;5033599;28;20171;-72
2022/06/30 03:15:28;;;;;;;0.00;0.00;;;;;;;15.68;88.57;100120.84;5033612;28;20248;-72
2022/06/30 03:17:53;;;;;;;0.00;0.00;;;;;;;15.76;87.84;100117.91;5032265;28;20172;-72
2022/06/30 03:20:18;;;;;;;0.00;0.00;;;;;;;15.57;88.24;100117.75;5032077;28;20265;-73
2022/06/30 03:22:44;;;;;;;0.00;0.00;;;;;;;15.40;89.25;100116.13;5033615;28;20164;-72
2022/06/30 03:25:09;;;;;;;0.00;0.00;;;;;;;15.58;89.59;100113.84;5033474;28;20175;-72
2022/06/30 03:27:34;;;;;;;0.00;0.00;;;;;;;15.55;89.28;100106.31;5033294;28;20168;-72
2022/06/30 03:30:00;;;;;;;0.00;0.00;;;;;;;15.41;90.07;100114.97;5032806;28;20617;-72
2022/06/30 03:32:25;;;;;;;0.00;0.00;;;;;;;15.59;89.55;100106.38;5031882;28;20263;-73
2022/06/30 03:34:51;;;;;;;0.00;0.00;;;;;;;15.65;89.35;100102.28;5033235;28;20172;-72
2022/06/30 03:37:16;;;;;;;0.33;0.33;;;;;;;15.79;88.93;100108.16;5031744;28;20176;-72
2022/06/30 03:39:41;;;;;;;0.00;0.00;;;;;;;15.84;87.87;100105.13;5032808;28;20226;-72
2022/06/30 03:42:08;;;;;;;0.03;0.03;;;;;;;15.71;88.13;100103.59;5033021;28;20205;-72
2022/06/30 03:44:33;;;;;;;0.00;0.00;;;;;;;15.66;89.12;100104.66;5033022;28;20195;-72
2022/06/30 03:46:58;;;;;;;0.00;0.00;;;;;;;15.68;90.27;100098.81;5033119;28;20631;-73
2022/06/30 03:49:24;;;;;;;0.00;0.00;;;;;;;15.57;90.46;100111.44;5032991;28;20180;-72
2022/06/30 03:51:49;;;;;;;0.00;0.00;;;;;;;15.70;91.31;100100.03;5032878;28;20211;-72
2022/06/30 03:54:15;;;;;;;0.00;0.00;;;;;;;15.83;90.71;100103.53;5032742;28;20176;-72
2022/06/30 03:56:40;;;;;;;0.00;0.00;;;;;;;15.81;90.26;100107.78;5032584;28;20175;-72
2022/06/30 03:59:05;;;;;;;0.00;0.00;;;;;;;15.89;89.29;100107.59;5032448;28;20225;-73
2022/06/30 04:01:31;;;;;;;0.00;0.00;;;;;;;15.77;89.11;100110.47;5032751;28;20175;-72
2022/06/30 04:03:56;;;;;;;0.53;0.53;;;;;;;15.49;90.59;100107.72;5031069;28;20666;-72
2022/06/30 04:06:23;;;;;;;0.00;0.00;;;;;;;15.73;91.01;100120.56;5032178;28;20515;-72
2022/06/30 04:08:48;;;;;;;0.00;0.00;;;;;;;15.52;90.25;100129.03;5030734;28;20188;-73
2022/06/30 04:11:14;;;;;;;0.00;0.00;;;;;;;15.72;90.15;100122.53;5032442;28;20337;-72
2022/06/30 04:13:39;;;;;;;0.00;0.00;;;;;;;15.84;89.81;100129.13;5032521;28;20183;-73
2022/06/30 04:16:05;;;;;;;0.00;0.00;;;;;;;16.01;88.72;100123.25;5032629;28;20191;-73
2022/06/30 04:18:30;;;;;;;0.00;0.00;;;;;;;16.05;88.29;100121.38;5031934;28;20762;-73
2022/06/30 04:20:55;;;;;;;0.00;0.00;;;;;;;15.93;88.08;100119.53;5032196;28;20199;-72
2022/06/30 04:23:21;;;;;;;0.00;0.00;;;;;;;15.66;88.87;100123.94;5032331;28;20184;-72
2022/06/30 04:25:46;;;;;;;0.00;0.00;;;;;;;15.53;89.28;100121.59;5032275;28;20243;-72
2022/06/30 04:28:11;;;;;;;0.00;0.00;;;;;;;15.59;90.35;100112.72;5031843;28;20186;-72
2022/06/30 04:33:21;;;;;;;0.00;0.00;;;;;;;15.81;89.21;100094.00;5032187;28;20639;-72
2022/06/30 04:35:46;;;;;;;0.00;0.00;;;;;;;15.67;90.36;100095.25;5031889;28;20176;-73
2022/06/30 04:38:11;;;;;;;0.00;0.00;;;;;;;15.73;90.35;100099.31;5031995;28;20182;-72
2022/06/30 04:43:21;;;;;;;0.00;0.00;;;;;;;16.04;89.08;100108.75;5031982;28;20321;-72
2022/06/30 04:45:46;;;;;;;0.10;0.10;;;;;;;15.57;91.32;100108.69;5032026;28;20255;-72
2022/06/30 04:48:12;;;;;;;0.00;0.00;;;;;;;15.47;92.51;100108.06;5031383;28;20255;-72
2022/06/30 04:50:38;;;;;;;0.00;0.00;;;;;;;15.53;93.22;100107.81;5031683;28;20219;-72
2022/06/30 04:53:04;;;;;;;0.87;0.87;;;;;;;15.40;92.69;100107.06;5031752;28;20234;-73
2022/06/30 04:55:29;;;;;;;0.00;0.00;;;;;;;15.55;92.97;100111.81;5031772;28;20649;-72
2022/06/30 04:57:55;;;;;;;0.00;0.00;;;;;;;15.70;92.88;100118.53;5031143;28;20186;-72
2022/06/30 05:00:20;;;;;;;0.00;0.00;;;;;;;15.80;92.88;100119.97;5031704;28;20247;-72
2022/06/30 05:02:45;;;;;;;0.00;0.00;;;;;;;15.72;92.41;100116.22;5031475;28;20179;-72
2022/06/30 05:05:11;;;;;;;0.00;0.00;;;;;;;15.77;92.64;100127.00;5030775;28;20322;-73
2022/06/30 05:07:36;;;;;;;0.00;0.00;;;;;;;15.91;92.68;100123.78;5031244;28;20172;-73
2022/06/30 05:10:03;;;;;;;0.00;0.00;;;;;;;16.08;92.63;100128.16;5031320;28;20286;-72
2022/06/30 05:12:28;;;;;;;0.10;0.10;;;;;;;16.08;92.40;100131.72;5031241;28;20691;-72
2022/06/30 05:14:54;;;;;;;0.00;0.00;;;;;;;16.13;92.42;100120.41;5031292;28;20252;-72
2022/06/30 05:17:19;;;;;;;0.13;0.13;;;;;;;16.03;93.19;100113.47;5031361;28;20171;-73
2022/06/30 05:19:44;;;;;;;0.00;0.00;;;;;;;16.22;93.68;100126.53;5031132;28;20181;-72
2022/06/30 05:22:10;;;;;;;0.00;0.00;;;;;;;16.40;92.93;100115.94;5031009;28;20639;-72
2022/06/30 05:27:19;;;;;;;0.00;0.00;;;;;;;16.61;91.05;100121.13;5031227;28;20215;-72
2022/06/30 05:29:44;;;;;;;0.00;0.00;;;;;;;16.75;90.67;100115.16;5030661;28;20211;-73
2022/06/30 05:32:10;;;;;;;0.00;0.00;;;;;;;16.83;89.73;100128.75;5030846;28;20172;-73
2022/06/30 05:34:35;;;;;;;0.00;0.00;;;;;;;16.94;89.04;100123.47;5030972;28;20179;-72
2022/06/30 05:37:03;;;;;;;0.00;0.00;;;;;;;17.13;88.61;100126.22;5030749;28;20180;-73
2022/06/30 05:39:28;;;;;;;0.00;0.00;;;;;;;17.27;87.64;100125.72;5029241;28;20180;-72
2022/06/30 05:41:53;;;;;;;0.00;0.00;;;;;;;17.30;85.82;100130.50;5029014;28;20535;-72
2022/06/30 05:44:19;;;;;;;0.00;0.00;;;;;;;17.49;86.02;100137.97;5030740;28;20534;-72
2022/06/30 05:46:44;;;;;;;0.00;0.00;;;;;;;17.61;85.32;100140.56;5030374;28;20176;-72
2022/06/30 05:49:10;;;;;;;0.00;0.00;;;;;;;17.78;84.91;100137.38;5029942;28;20176;-73
2022/06/30 05:51:35;;;;;;;0.00;0.00;;;;;;;17.90;83.96;100139.16;5027582;28;20211;-73
2022/06/30 05:54:01;;;;;;;0.10;0.10;;;;;;;17.93;82.51;100137.63;5030404;28;20183;-73
2022/06/30 05:56:27;;;;;;;0.00;0.00;;;;;;;18.06;82.25;100144.56;5030736;28;20574;-72
2022/06/30 05:58:52;;;;;;;0.13;0.13;;;;;;;18.10;81.40;100140.72;5030100;28;20179;-72
2022/06/30 06:01:18;;;;;;;0.00;0.00;;;;;;;18.20;81.20;100141.25;5030706;28;20631;-73
2022/06/30 06:03:44;;;;;;;0.00;0.00;;;;;;;18.37;82.08;100141.56;5030558;28;20652;-73
2022/06/30 06:06:09;;;;;;;0.00;0.00;;;;;;;18.51;81.25;100149.25;5029676;28;20262;-73
2022/06/30 06:08:34;;;;;;;0.00;0.00;;;;;;;18.63;80.58;100151.00;5030084;28;20547;-75
2022/06/30 06:11:00;;;;;;;0.00;0.00;;;;;;;18.80;80.74;100149.69;5030296;28;20208;-74
2022/06/30 06:13:25;;;;;;;0.00;0.00;;;;;;;18.79;79.76;100146.13;5029263;28;20175;-74
2022/06/30 06:15:50;;;;;;;0.23;0.23;;;;;;;18.92;79.92;100141.97;5030622;28;20172;-74
2022/06/30 06:18:16;;;;;;;0.00;0.00;;;;;;;18.94;80.03;100138.81;5029725;28;20568;-74
2022/06/30 06:20:42;;;;;;;0.10;0.10;;;;;;;18.97;79.74;100143.63;5030366;28;20655;-74
2022/06/30 06:23:08;;;;;;;0.07;0.00;;;;;;;19.09;79.89;100139.78;5030620;28;20243;-74
2022/06/30 06:25:33;;;;;;;0.00;0.00;;;;;;;19.22;80.01;100138.38;5029138;28;20176;-74
2022/06/30 06:30:42;;;;;;;0.00;0.00;;;;;;;19.31;79.38;100131.38;5030499;28;20695;-74
2022/06/30 06:33:08;;;;;;;0.00;0.00;;;;;;;19.35;79.93;100130.63;5030304;28;20207;-74
2022/06/30 06:35:33;;;;;;;0.00;0.00;;;;;;;19.47;80.20;100131.16;5030913;28;20164;-74
2022/06/30 06:38:00;;;;;;;0.60;0.60;;;;;;;19.66;79.51;100127.44;5035527;28;20172;-74
2022/06/30 06:40:26;;;;;;;0.30;0.13;;;;;;;19.82;79.94;100135.53;5036986;28;20267;-74
2022/06/30 06:42:51;;;;;;;0.10;0.00;;;;;;;19.92;79.56;100127.28;5031354;28;20251;-75
2022/06/30 06:45:17;;;;;;;0.47;0.23;;;;;;;20.12;79.05;100132.63;5031124;28;20192;-75
2022/06/30 06:47:43;;;;;;;0.40;0.20;;;;;;;20.37;78.96;100130.81;5030376;28;20513;-75
2022/06/30 06:50:08;;;;;;;0.23;0.23;;;;;;;20.32;78.24;100122.06;5030454;28;20279;-75
2022/06/30 06:52:34;;;;;;;0.97;0.97;;;;;;;20.34;78.23;100117.72;5032981;28;20176;-75
2022/06/30 06:54:59;;;;;;;0.00;0.00;;;;;;;20.54;79.12;100112.72;5033945;28;20593;-74
2022/06/30 06:57:31;;;;;;;0.00;0.00;;;;;;;20.69;78.34;100117.22;5033973;28;20172;-74
2022/06/30 06:59:56;;;;;;;0.40;0.40;;;;;;;20.74;77.86;100118.81;5033928;28;20169;-75
2022/06/30 07:02:21;;;;;;;0.43;0.43;;;;;;;20.62;78.06;100111.59;5033833;28;20393;-75
2022/06/30 07:04:47;;;;;;;4.73;1.50;;;;;;;20.50;78.36;100096.06;5031920;28;20227;-75
2022/06/30 07:07:12;;;;;;;0.27;0.27;;;;;;;20.50;79.22;100101.63;5034014;28;20627;-74
2022/06/30 07:09:37;;;;;;;0.10;0.10;;;;;;;20.52;79.32;100098.44;5033634;28;20185;-74
2022/06/30 07:12:03;;;;;;;0.53;0.53;;;;;;;20.58;79.23;100099.69;5033622;28;20172;-75
2022/06/30 07:14:28;;;;;;;0.00;0.00;;;;;;;20.64;79.87;100106.47;5030142;28;20184;-75
2022/06/30 07:16:53;;;;;;;0.00;0.00;;;;;;;20.71;79.31;100102.94;5033628;28;20172;-75
2022/06/30 07:19:19;;;;;;;0.17;0.17;;;;;;;20.81;79.13;100104.97;5033223;28;20269;-75
2022/06/30 07:21:44;;;;;;;0.03;0.03;;;;;;;20.93;79.24;100103.84;5033415;28;20192;-75
2022/06/30 07:24:11;;;;;;;9.53;2.33;;;;;;;21.10;79.06;100105.88;5033476;28;20612;-75
2022/06/30 07:26:36;;;;;;;0.10;0.10;;;;;;;21.27;78.65;100107.19;5033274;28;20250;-75
2022/06/30 07:29:02;;;;;;;0.00;0.00;;;;;;;21.55;77.67;100101.69;5033233;28;20661;-76
2022/06/30 07:31:27;;;;;;;0.33;0.13;;;;;;;21.67;76.99;100092.97;5031994;28;20290;-75
2022/06/30 07:33:53;;;;;;;0.53;0.53;;;;;;;21.68;76.43;100097.34;5033147;28;20254;-75
2022/06/30 07:36:18;;;;;;;0.27;0.27;;;;;;;21.72;76.61;100085.44;5033297;28;20549;-75
2022/06/30 07:38:44;;;;;;;0.00;0.00;;;;;;;21.95;76.43;100078.28;5032734;28;20182;-75
2022/06/30 07:41:10;;;;;;;0.40;0.40;;;;;;;22.26;76.45;100082.28;5033483;28;20173;-75
2022/06/30 07:43:35;;;;;;;0.00;0.00;;;;;;;22.10;76.03;100083.88;5033424;28;20218;-76
2022/06/30 07:46:00;;;;;;;0.33;0.33;;;;;;;22.25;76.32;100094.59;5033215;28;20656;-75
2022/06/30 07:48:26;;;;;;;0.10;0.10;;;;;;;22.38;75.69;100094.19;5032549;28;20740;-75
2022/06/30 07:50:51;;;;;;;0.93;0.93;;;;;;;22.39;75.50;100085.44;5032957;28;20217;-75
2022/06/30 07:53:16;;;;;;;0.27;0.27;;;;;;;22.49;75.31;100083.84;5033236;28;20193;-75
2022/06/30 07:55:42;;;;;;;0.77;0.77;;;;;;;22.56;75.03;100084.59;5032990;28;20261;-75
2022/06/30 07:58:07;;;;;;;7.13;2.47;;;;;;;22.58;75.00;100086.22;5032620;28;20192;-75
2022/06/30 08:00:33;;;;;;;0.57;0.57;;;;;;;22.79;75.19;100086.16;5032882;28;20250;-75
2022/06/30 08:02:58;;;;;;;0.77;0.77;;;;;;;22.66;73.79;100082.19;5032406;28;20181;-75
2022/06/30 08:05:23;;;;;;;0.17;0.10;;;;;;;22.86;73.21;100083.38;5031789;28;20179;-75
2022/06/30 08:07:49;;;;;;;0.00;0.00;;;;;;;22.92;73.81;100078.97;5032379;28;20648;-75
2022/06/30 08:10:14;;;;;;;0.00;0.00;;;;;;;23.02;73.87;100080.94;5043980;28;20202;-75
2022/06/30 08:12:39;;;;;;;1.17;1.17;;;;;;;23.25;73.71;100080.41;5043225;28;20633;-75
2022/06/30 08:15:05;;;;;;;0.30;0.30;;;;;;;23.33;72.83;100081.16;5036734;28;20172;-75
2022/06/30 08:17:31;;;;;;;0.00;0.00;;;;;;;23.38;73.11;100066.78;5032363;28;20189;-75
2022/06/30 08:19:58;;;;;;;0.53;0.50;;;;;;;23.54;72.52;100064.28;5033464;28;20682;-75
2022/06/30 08:22:24;;;;;;;0.20;0.20;;;;;;;23.56;71.36;100061.09;5039345;28;20188;-75
2022/06/30 08:24:50;;;;;;;0.27;0.27;;;;;;;23.32;71.68;100060.06;5041616;28;20659;-75
2022/06/30 08:27:15;;;;;;;0.00;0.00;;;;;;;23.60;71.29;100065.50;5032122;28;20175;-75
2022/06/30 08:29:41;;;;;;;0.53;0.53;;;;;;;23.50;70.68;100060.75;5031801;28;20580;-75
2022/06/30 08:32:06;;;;;;;1.03;1.00;;;;;;;23.32;71.48;100068.44;5032138;28;20184;-75
2022/06/30 08:34:32;;;;;;;0.00;0.00;;;;;;;23.28;71.88;100073.22;5032118;28;20203;-75
2022/06/30 08:36:57;;;;;;;0.10;0.10;;;;;;;23.54;72.50;100072.66;5032275;28;20207;-75
2022/06/30 08:42:08;;;;;;;0.00;0.00;;;;;;;23.97;70.81;100072.38;5032087;28;20178;-75
2022/06/30 08:44:35;;;;;;;0.00;0.00;;;;;;;24.03;69.86;100074.31;5031901;28;20529;-75
2022/06/30 08:47:02;;;;;;;0.00;0.00;;;;;;;24.10;69.68;100069.88;5030322;28;20237;-76
2022/06/30 08:49:28;;;;;;;0.10;0.10;;;;;;;24.01;69.37;100071.16;5031450;28;20229;-76
2022/06/30 08:51:58;;;;;;;0.00;0.00;;;;;;;24.20;70.51;100069.78;5031741;28;20198;-76
2022/06/30 08:54:29;;;;;;;6.13;0.77;;;;;;;24.36;70.11;100065.66;5031620;28;20259;-76
2022/06/30 08:56:56;;;;;;;0.00;0.00;;;;;;;24.45;69.03;100060.38;5031261;28;20176;-76
2022/06/30 08:59:24;;;;;;;0.00;0.00;;;;;;;24.57;68.73;100065.44;5031222;28;20186;-76
2022/06/30 09:01:49;;;;;;;0.00;0.00;;;;;;;24.68;67.67;100054.16;5030834;28;20195;-76
2022/06/30 09:04:15;;;;;;;0.73;0.73;;;;;;;24.43;68.67;100055.19;5028954;28;20192;-76
2022/06/30 09:06:44;;;;;;;1.27;1.23;;;;;;;24.38;67.76;100049.28;5030024;28;20184;-75
2022/06/30 09:09:10;;;;;;;0.10;0.10;;;;;;;24.59;68.57;100049.03;5031365;28;20345;-76
2022/06/30 09:11:54;;;;;;;1.17;1.07;;;;;;;24.80;67.15;100048.81;5031307;28;20671;-76
2022/06/30 09:14:48;;;;;;;5.00;4.80;;;;;;;24.71;67.48;100042.13;5030229;28;20696;-75
2022/06/30 09:17:17;;;;;;;1.07;1.07;;;;;;;24.86;68.00;100041.53;5031008;28;20575;-76
2022/06/30 09:19:51;;;;;;;0.00;0.00;;;;;;;24.82;66.91;100049.19;5031063;28;20180;-76
2022/06/30 09:22:17;;;;;;;0.97;0.97;;;;;;;24.96;68.15;100044.63;5031315;28;20179;-76
2022/06/30 09:24:42;;;;;;;1.20;1.20;;;;;;;25.03;66.67;100036.97;5031301;28;20180;-76
2022/06/30 09:27:21;;;;;;;0.10;0.10;;;;;;;24.91;66.32;100027.13;5027757;28;20180;-76
2022/06/30 09:29:50;;;;;;;0.00;0.00;;;;;;;25.23;66.57;100030.72;5030260;28;20231;-76
2022/06/30 09:32:15;;;;;;;0.10;0.10;;;;;;;25.38;66.40;100037.69;5031172;28;20199;-76
2022/06/30 09:34:42;;;;;;;1.33;1.23;;;;;;;25.26;65.24;100032.66;5031415;28;20643;-76
2022/06/30 09:37:22;;;;;;;1.03;1.03;;;;;;;24.91;65.89;100040.31;5030776;28;20176;-76
2022/06/30 09:39:49;;;;;;;0.00;0.00;;;;;;;24.86;66.04;100033.16;5030687;28;20527;-76
2022/06/30 09:42:34;;;;;;;1.07;1.07;;;;;;;25.16;65.87;100035.19;5030875;28;20624;-76
2022/06/30 09:44:59;;;;;;;0.00;0.00;;;;;;;25.57;65.83;100034.19;5027991;28;20246;-76
2022/06/30 09:47:25;;;;;;;0.37;0.37;;;;;;;25.64;64.08;100030.50;5030614;28;20180;-76
2022/06/30 09:49:52;;;;;;;0.00;0.00;;;;;;;25.71;64.85;100030.41;5030454;28;20192;-76
2022/06/30 09:52:23;;;;;;;0.00;0.00;;;;;;;25.71;64.98;100031.19;5030700;28;20187;-76
2022/06/30 09:55:07;;;;;;;0.00;0.00;;;;;;;25.92;64.78;100030.06;5030813;28;20195;-76
2022/06/30 09:57:38;;;;;;;0.00;0.00;;;;;;;26.01;63.04;100033.06;5030435;28;20180;-76
2022/06/30 10:00:04;;;;;;;0.00;0.00;;;;;;;25.79;63.36;100029.06;5030871;28;20179;-76
2022/06/30 10:02:33;;;;;;;3.33;2.40;;;;;;;25.72;63.44;100029.19;5029951;28;20682;-76
2022/06/30 10:04:59;;;;;;;0.67;0.67;;;;;;;25.73;64.71;100027.97;5029629;28;20635;-75
2022/06/30 10:07:26;;;;;;;0.77;0.77;;;;;;;25.78;62.42;100035.88;5030489;28;20210;-75
2022/06/30 10:09:52;;;;;;;4.17;3.87;;;;;;;26.14;62.16;100040.88;5030207;28;20201;-76
2022/06/30 10:12:23;;;;;;;0.00;0.00;;;;;;;26.25;63.17;100022.66;5030719;28;20179;-74
2022/06/30 10:14:51;;;;;;;0.70;0.70;;;;;;;26.42;63.87;100031.97;5030679;28;20167;-73
2022/06/30 10:17:26;;;;;;;0.00;0.00;;;;;;;26.62;61.72;100029.97;5030217;28;20563;-73
2022/06/30 10:19:52;;;;;;;0.40;0.40;;;;;;;26.63;61.38;100023.16;5030224;28;20179;-73
2022/06/30 10:22:19;;;;;;;0.00;0.00;;;;;;;26.69;61.16;100021.41;5029963;28;20191;-73
2022/06/30 10:24:46;;;;;;;0.00;0.00;;;;;;;26.74;62.39;100027.72;5030876;28;20632;-73
2022/06/30 10:27:12;;;;;;;0.60;0.60;;;;;;;27.08;60.55;100025.44;5038659;28;20322;-71
2022/06/30 10:29:40;;;;;;;0.00;0.00;;;;;;;27.06;59.10;100016.69;5037977;28;20171;-71
2022/06/30 10:32:24;;;;;;;0.20;0.20;;;;;;;26.72;60.81;100021.78;5035337;28;20176;-74
2022/06/30 10:35:04;;;;;;;0.00;0.00;;;;;;;26.45;62.11;100025.50;5035008;28;20568;-74
2022/06/30 10:37:39;;;;;;;0.07;0.00;;;;;;;26.52;61.73;100019.78;5034859;28;20168;-74
2022/06/30 10:40:21;;;;;;;0.00;0.00;;;;;;;26.82;61.03;100010.34;5034691;28;20261;-74
2022/06/30 10:42:49;;;;;;;0.90;0.90;;;;;;;26.63;61.11;100006.34;5034342;28;20563;-74
2022/06/30 10:45:30;;;;;;;0.00;0.00;;;;;;;26.78;60.48;100003.25;5034257;28;20180;-71
2022/06/30 10:47:59;;;;;;;0.37;0.37;;;;;;;26.78;60.77;100003.25;5033894;28;20180;-71
2022/06/30 10:50:39;;;;;;;0.10;0.10;;;;;;;26.65;61.30;99989.88;5032834;28;20196;-71
2022/06/30 10:53:08;;;;;;;0.00;0.00;;;;;;;26.82;60.45;99989.94;5034240;28;20176;-71
2022/06/30 10:55:48;;;;;;;0.57;0.10;;;;;;;27.00;60.52;99993.13;5032739;28;20590;-71
2022/06/30 10:58:15;;;;;;;0.77;0.77;;;;;;;27.08;60.47;100000.19;5031968;28;20186;-72
2022/06/30 11:00:56;;;;;;;0.63;0.63;;;;;;;26.85;60.34;100001.06;5031555;28;20551;-72
2022/06/30 11:03:34;;;;;;;0.20;0.20;;;;;;;26.53;60.73;99993.31;5025166;28;20203;-71
2022/06/30 11:06:09;;;;;;;0.43;0.43;;;;;;;26.86;60.08;99987.81;5032912;28;20181;-71
2022/06/30 11:08:47;;;;;;;0.33;0.33;;;;;;;27.14;59.17;99992.84;5033416;28;20175;-72
2022/06/30 11:11:22;;;;;;;0.73;0.73;;;;;;;26.95;59.89;100002.84;5032240;28;20675;-71
2022/06/30 11:14:02;;;;;;;0.50;0.47;;;;;;;27.05;57.83;99995.44;5033569;28;20172;-72
2022/06/30 11:16:29;;;;;;;2.43;2.33;;;;;;;26.86;59.17;99997.03;5031552;28;20172;-71
2022/06/30 11:18:55;;;;;;;1.37;1.27;;;;;;;26.78;59.53;99984.41;5030892;28;20168;-73
2022/06/30 11:21:21;;;;;;;0.93;0.93;;;;;;;27.04;59.04;99979.84;5033335;28;20253;-73
2022/06/30 11:23:47;;;;;;;0.00;0.00;;;;;;;27.28;59.37;99980.50;5033368;28;20173;-73
2022/06/30 11:29:01;;;;;;;1.47;1.43;;;;;;;27.62;57.66;99968.03;5033059;28;20179;-74
2022/06/30 11:31:30;;;;;;;0.37;0.37;;;;;;;27.89;58.20;99973.41;5033119;28;20212;-74
2022/06/30 11:34:10;;;;;;;1.30;1.30;;;;;;;28.05;57.33;99970.56;5033114;28;20681;-74
2022/06/30 11:36:37;;;;;;;0.00;0.00;;;;;;;27.81;56.37;99961.56;5032982;28;20188;-73
2022/06/30 11:39:20;;;;;;;0.00;0.00;;;;;;;28.02;57.13;99957.41;5031178;28;20192;-73
2022/06/30 11:41:55;;;;;;;0.00;0.00;;;;;;;27.55;56.16;99957.78;5029642;28;20240;-73
2022/06/30 11:44:26;;;;;;;0.20;0.20;;;;;;;27.96;56.08;99953.56;5032316;28;20175;-73
2022/06/30 11:46:59;;;;;;;0.30;0.30;;;;;;;28.07;54.67;99951.25;5027314;28;20182;-73